sensor_id;sensor_type;location;lat;lon;timestamp;P1;durP1;ratioP1;P2;durP2;ratioP2
25752;SDS011;13600;50.816;4.416;2024-03-17T00:01:36;14.60;;;7.38;;
25752;SDS011;13600;50.816;4.416;2024-03-17T00:04:03;11.90;;;6.88;;
25752;SDS011;13600;50.816;4.416;2024-03-17T00:06:29;13.95;;;7.00;;
25752;SDS011;13600;50.816;4.416;2024-03-17T00:08:55;13.07;;;6.97;;
25752;SDS011;13600;50.816;4.416;2024-03-17T00:11:21;12.55;;;6.57;;
25752;SDS011;13600;50.816;4.416;2024-03-17T00:13:46;11.88;;;6.35;;
25752;SDS011;13600;50.816;4.416;2024-03-17T00:16:12;10.95;;;6.72;;
25752;SDS011;13600;50.816;4.416;2024-03-17T00:18:39;10.98;;;6.05;;
25752;SDS011;13600;50.816;4.416;2024-03-17T00:21:05;11.05;;;5.97;;
25752;SDS011;13600;50.816;4.416;2024-03-17T00:23:31;13.02;;;6.32;;
25752;SDS011;13600;50.816;4.416;2024-03-17T00:25:57;11.95;;;6.25;;
25752;SDS011;13600;50.816;4.416;2024-03-17T00:28:23;10.02;;;5.85;;
25752;SDS011;13600;50.816;4.416;2024-03-17T00:30:50;10.23;;;6.40;;
25752;SDS011;13600;50.816;4.416;2024-03-17T00:33:15;12.32;;;6.10;;
25752;SDS011;13600;50.816;4.416;2024-03-17T00:35:41;10.82;;;6.43;;
25752;SDS011;13600;50.816;4.416;2024-03-17T00:38:07;13.25;;;6.50;;
25752;SDS011;13600;50.816;4.416;2024-03-17T00:40:38;14.10;;;6.47;;
25752;SDS011;13600;50.816;4.416;2024-03-17T00:43:07;10.70;;;5.97;;
25752;SDS011;13600;50.816;4.416;2024-03-17T00:45:33;14.73;;;6.60;;
25752;SDS011;13600;50.816;4.416;2024-03-17T00:47:59;11.65;;;5.97;;
25752;SDS011;13600;50.816;4.416;2024-03-17T00:50:25;11.60;;;6.20;;
25752;SDS011;13600;50.816;4.416;2024-03-17T00:52:50;11.25;;;5.85;;
25752;SDS011;13600;50.816;4.416;2024-03-17T00:55:16;11.18;;;5.95;;
25752;SDS011;13600;50.816;4.416;2024-03-17T00:57:42;13.23;;;6.10;;
25752;SDS011;13600;50.816;4.416;2024-03-17T01:00:07;13.07;;;6.30;;
25752;SDS011;13600;50.816;4.416;2024-03-17T01:02:40;11.90;;;5.57;;
25752;SDS011;13600;50.816;4.416;2024-03-17T01:05:06;10.07;;;5.93;;
25752;SDS011;13600;50.816;4.416;2024-03-17T01:07:33;9.20;;;5.50;;
25752;SDS011;13600;50.816;4.416;2024-03-17T01:09:59;14.85;;;5.55;;
25752;SDS011;13600;50.816;4.416;2024-03-17T01:12:25;12.43;;;6.10;;
25752;SDS011;13600;50.816;4.416;2024-03-17T01:14:51;12.75;;;5.60;;
25752;SDS011;13600;50.816;4.416;2024-03-17T01:17:17;10.25;;;6.10;;
25752;SDS011;13600;50.816;4.416;2024-03-17T01:19:44;10.52;;;5.72;;
25752;SDS011;13600;50.816;4.416;2024-03-17T01:22:10;10.40;;;5.47;;
25752;SDS011;13600;50.816;4.416;2024-03-17T01:24:36;10.23;;;6.07;;
25752;SDS011;13600;50.816;4.416;2024-03-17T01:27:04;11.13;;;6.15;;
25752;SDS011;13600;50.816;4.416;2024-03-17T01:29:33;13.00;;;6.22;;
25752;SDS011;13600;50.816;4.416;2024-03-17T01:32:00;10.43;;;6.35;;
25752;SDS011;13600;50.816;4.416;2024-03-17T01:34:25;12.65;;;6.22;;
25752;SDS011;13600;50.816;4.416;2024-03-17T01:36:51;9.50;;;6.05;;
25752;SDS011;13600;50.816;4.416;2024-03-17T01:39:16;11.52;;;5.95;;
25752;SDS011;13600;50.816;4.416;2024-03-17T01:41:43;11.43;;;5.97;;
25752;SDS011;13600;50.816;4.416;2024-03-17T01:44:23;11.25;;;5.70;;
25752;SDS011;13600;50.816;4.416;2024-03-17T01:46:53;10.38;;;6.10;;
25752;SDS011;13600;50.816;4.416;2024-03-17T01:49:20;12.38;;;5.80;;
25752;SDS011;13600;50.816;4.416;2024-03-17T01:51:46;15.10;;;6.53;;
25752;SDS011;13600;50.816;4.416;2024-03-17T01:54:14;11.13;;;6.65;;
25752;SDS011;13600;50.816;4.416;2024-03-17T01:56:40;11.20;;;5.55;;
25752;SDS011;13600;50.816;4.416;2024-03-17T01:59:07;13.32;;;5.60;;
25752;SDS011;13600;50.816;4.416;2024-03-17T02:01:37;12.60;;;6.07;;
25752;SDS011;13600;50.816;4.416;2024-03-17T02:04:04;13.23;;;6.22;;
25752;SDS011;13600;50.816;4.416;2024-03-17T02:06:31;17.05;;;5.85;;
25752;SDS011;13600;50.816;4.416;2024-03-17T02:08:56;10.40;;;5.55;;
25752;SDS011;13600;50.816;4.416;2024-03-17T02:13:59;11.85;;;5.63;;
25752;SDS011;13600;50.816;4.416;2024-03-17T02:16:26;9.70;;;5.07;;
25752;SDS011;13600;50.816;4.416;2024-03-17T02:18:55;11.18;;;5.13;;
25752;SDS011;13600;50.816;4.416;2024-03-17T02:21:28;14.50;;;5.35;;
25752;SDS011;13600;50.816;4.416;2024-03-17T02:26:32;11.43;;;5.80;;
25752;SDS011;13600;50.816;4.416;2024-03-17T02:29:00;12.40;;;5.25;;
25752;SDS011;13600;50.816;4.416;2024-03-17T02:31:26;10.40;;;5.18;;
25752;SDS011;13600;50.816;4.416;2024-03-17T02:33:51;11.13;;;5.30;;
25752;SDS011;13600;50.816;4.416;2024-03-17T02:38:46;10.00;;;5.25;;
25752;SDS011;13600;50.816;4.416;2024-03-17T02:41:31;13.57;;;6.20;;
25752;SDS011;13600;50.816;4.416;2024-03-17T02:43:56;13.05;;;5.70;;
25752;SDS011;13600;50.816;4.416;2024-03-17T02:46:22;10.70;;;5.55;;
25752;SDS011;13600;50.816;4.416;2024-03-17T02:48:50;10.25;;;5.05;;
25752;SDS011;13600;50.816;4.416;2024-03-17T02:51:17;8.50;;;4.72;;
25752;SDS011;13600;50.816;4.416;2024-03-17T02:56:19;11.88;;;5.53;;
25752;SDS011;13600;50.816;4.416;2024-03-17T02:58:52;9.45;;;5.30;;
25752;SDS011;13600;50.816;4.416;2024-03-17T03:01:22;9.25;;;5.30;;
25752;SDS011;13600;50.816;4.416;2024-03-17T03:03:52;11.65;;;5.03;;
25752;SDS011;13600;50.816;4.416;2024-03-17T03:06:17;10.95;;;5.55;;
25752;SDS011;13600;50.816;4.416;2024-03-17T03:08:44;13.55;;;5.53;;
25752;SDS011;13600;50.816;4.416;2024-03-17T03:11:13;9.77;;;5.45;;
25752;SDS011;13600;50.816;4.416;2024-03-17T03:13:41;12.23;;;5.75;;
25752;SDS011;13600;50.816;4.416;2024-03-17T03:16:09;11.40;;;5.78;;
25752;SDS011;13600;50.816;4.416;2024-03-17T03:18:36;8.35;;;5.47;;
25752;SDS011;13600;50.816;4.416;2024-03-17T03:21:03;8.80;;;5.25;;
25752;SDS011;13600;50.816;4.416;2024-03-17T03:23:30;11.60;;;5.70;;
25752;SDS011;13600;50.816;4.416;2024-03-17T03:25:57;11.18;;;5.32;;
25752;SDS011;13600;50.816;4.416;2024-03-17T03:28:24;13.25;;;6.22;;
25752;SDS011;13600;50.816;4.416;2024-03-17T03:30:50;8.98;;;5.50;;
25752;SDS011;13600;50.816;4.416;2024-03-17T03:33:17;9.63;;;5.45;;
25752;SDS011;13600;50.816;4.416;2024-03-17T03:35:43;11.63;;;5.28;;
25752;SDS011;13600;50.816;4.416;2024-03-17T03:38:10;9.38;;;5.82;;
25752;SDS011;13600;50.816;4.416;2024-03-17T03:40:38;12.10;;;4.93;;
25752;SDS011;13600;50.816;4.416;2024-03-17T03:43:04;11.50;;;5.97;;
25752;SDS011;13600;50.816;4.416;2024-03-17T03:45:30;10.55;;;6.10;;
25752;SDS011;13600;50.816;4.416;2024-03-17T03:47:56;11.93;;;5.95;;
25752;SDS011;13600;50.816;4.416;2024-03-17T03:50:22;9.75;;;5.43;;
25752;SDS011;13600;50.816;4.416;2024-03-17T03:52:48;11.18;;;5.60;;
25752;SDS011;13600;50.816;4.416;2024-03-17T03:55:15;10.55;;;5.95;;
25752;SDS011;13600;50.816;4.416;2024-03-17T03:57:42;11.20;;;6.15;;
25752;SDS011;13600;50.816;4.416;2024-03-17T04:00:11;11.50;;;6.05;;
25752;SDS011;13600;50.816;4.416;2024-03-17T04:02:47;11.93;;;5.95;;
25752;SDS011;13600;50.816;4.416;2024-03-17T04:05:14;15.13;;;6.35;;
25752;SDS011;13600;50.816;4.416;2024-03-17T04:07:41;10.63;;;6.38;;
25752;SDS011;13600;50.816;4.416;2024-03-17T04:10:08;13.20;;;6.18;;
25752;SDS011;13600;50.816;4.416;2024-03-17T04:12:34;11.95;;;5.80;;
25752;SDS011;13600;50.816;4.416;2024-03-17T04:15:00;13.32;;;6.18;;
25752;SDS011;13600;50.816;4.416;2024-03-17T04:17:27;10.10;;;6.20;;
25752;SDS011;13600;50.816;4.416;2024-03-17T04:19:53;12.35;;;6.68;;
25752;SDS011;13600;50.816;4.416;2024-03-17T04:22:20;11.23;;;6.63;;
25752;SDS011;13600;50.816;4.416;2024-03-17T04:24:47;11.93;;;6.07;;
25752;SDS011;13600;50.816;4.416;2024-03-17T04:27:21;13.07;;;7.03;;
25752;SDS011;13600;50.816;4.416;2024-03-17T04:29:51;13.75;;;6.78;;
25752;SDS011;13600;50.816;4.416;2024-03-17T04:32:17;15.52;;;6.97;;
25752;SDS011;13600;50.816;4.416;2024-03-17T04:34:43;14.43;;;6.63;;
25752;SDS011;13600;50.816;4.416;2024-03-17T04:37:09;16.70;;;7.60;;
25752;SDS011;13600;50.816;4.416;2024-03-17T04:39:41;16.45;;;6.93;;
25752;SDS011;13600;50.816;4.416;2024-03-17T04:42:11;12.05;;;6.25;;
25752;SDS011;13600;50.816;4.416;2024-03-17T04:44:39;12.73;;;6.88;;
25752;SDS011;13600;50.816;4.416;2024-03-17T04:47:05;11.82;;;6.90;;
25752;SDS011;13600;50.816;4.416;2024-03-17T04:49:35;13.45;;;6.93;;
25752;SDS011;13600;50.816;4.416;2024-03-17T04:52:01;14.27;;;7.10;;
25752;SDS011;13600;50.816;4.416;2024-03-17T04:54:26;12.63;;;6.90;;
25752;SDS011;13600;50.816;4.416;2024-03-17T04:56:52;12.93;;;7.28;;
25752;SDS011;13600;50.816;4.416;2024-03-17T04:59:18;14.13;;;6.90;;
25752;SDS011;13600;50.816;4.416;2024-03-17T05:01:44;13.43;;;7.50;;
25752;SDS011;13600;50.816;4.416;2024-03-17T05:04:10;12.38;;;7.22;;
25752;SDS011;13600;50.816;4.416;2024-03-17T05:06:35;14.80;;;7.22;;
25752;SDS011;13600;50.816;4.416;2024-03-17T05:09:01;13.00;;;6.82;;
25752;SDS011;13600;50.816;4.416;2024-03-17T05:11:27;12.88;;;7.00;;
25752;SDS011;13600;50.816;4.416;2024-03-17T05:13:52;13.43;;;6.85;;
25752;SDS011;13600;50.816;4.416;2024-03-17T05:16:19;13.23;;;6.90;;
25752;SDS011;13600;50.816;4.416;2024-03-17T05:18:48;12.80;;;6.97;;
25752;SDS011;13600;50.816;4.416;2024-03-17T05:21:14;15.57;;;6.82;;
25752;SDS011;13600;50.816;4.416;2024-03-17T05:23:40;11.80;;;6.57;;
25752;SDS011;13600;50.816;4.416;2024-03-17T05:26:05;13.20;;;6.88;;
25752;SDS011;13600;50.816;4.416;2024-03-17T05:28:31;11.70;;;6.80;;
25752;SDS011;13600;50.816;4.416;2024-03-17T05:30:57;15.73;;;7.40;;
25752;SDS011;13600;50.816;4.416;2024-03-17T05:33:24;16.50;;;6.78;;
25752;SDS011;13600;50.816;4.416;2024-03-17T05:35:51;13.68;;;6.53;;
25752;SDS011;13600;50.816;4.416;2024-03-17T05:38:21;11.75;;;6.55;;
25752;SDS011;13600;50.816;4.416;2024-03-17T05:40:58;12.98;;;6.75;;
25752;SDS011;13600;50.816;4.416;2024-03-17T05:43:26;15.00;;;6.05;;
25752;SDS011;13600;50.816;4.416;2024-03-17T05:46:02;10.80;;;6.20;;
25752;SDS011;13600;50.816;4.416;2024-03-17T05:48:29;12.90;;;6.30;;
25752;SDS011;13600;50.816;4.416;2024-03-17T05:50:55;14.15;;;6.53;;
25752;SDS011;13600;50.816;4.416;2024-03-17T05:53:22;12.65;;;6.72;;
25752;SDS011;13600;50.816;4.416;2024-03-17T05:55:51;12.73;;;6.53;;
25752;SDS011;13600;50.816;4.416;2024-03-17T05:58:17;13.60;;;6.53;;
25752;SDS011;13600;50.816;4.416;2024-03-17T06:00:43;11.63;;;6.78;;
25752;SDS011;13600;50.816;4.416;2024-03-17T06:03:09;11.63;;;6.65;;
25752;SDS011;13600;50.816;4.416;2024-03-17T06:05:36;16.02;;;6.75;;
25752;SDS011;13600;50.816;4.416;2024-03-17T06:08:04;16.80;;;7.22;;
25752;SDS011;13600;50.816;4.416;2024-03-17T06:10:31;13.63;;;6.75;;
25752;SDS011;13600;50.816;4.416;2024-03-17T06:12:58;12.18;;;6.28;;
25752;SDS011;13600;50.816;4.416;2024-03-17T06:15:26;16.27;;;6.80;;
25752;SDS011;13600;50.816;4.416;2024-03-17T06:17:53;12.80;;;6.35;;
25752;SDS011;13600;50.816;4.416;2024-03-17T06:20:19;17.23;;;6.93;;
25752;SDS011;13600;50.816;4.416;2024-03-17T06:22:53;16.35;;;6.50;;
25752;SDS011;13600;50.816;4.416;2024-03-17T06:25:20;13.70;;;6.05;;
25752;SDS011;13600;50.816;4.416;2024-03-17T06:27:49;14.75;;;7.07;;
25752;SDS011;13600;50.816;4.416;2024-03-17T06:30:15;12.00;;;6.38;;
25752;SDS011;13600;50.816;4.416;2024-03-17T06:32:41;17.02;;;7.32;;
25752;SDS011;13600;50.816;4.416;2024-03-17T06:35:09;13.80;;;6.57;;
25752;SDS011;13600;50.816;4.416;2024-03-17T06:37:35;15.93;;;6.78;;
25752;SDS011;13600;50.816;4.416;2024-03-17T06:40:01;14.10;;;6.80;;
25752;SDS011;13600;50.816;4.416;2024-03-17T06:42:28;14.35;;;6.50;;
25752;SDS011;13600;50.816;4.416;2024-03-17T06:44:57;12.82;;;6.28;;
25752;SDS011;13600;50.816;4.416;2024-03-17T06:47:23;15.38;;;6.90;;
25752;SDS011;13600;50.816;4.416;2024-03-17T06:49:49;12.10;;;6.13;;
25752;SDS011;13600;50.816;4.416;2024-03-17T06:52:14;8.30;;;5.63;;
25752;SDS011;13600;50.816;4.416;2024-03-17T06:54:40;18.42;;;7.10;;
25752;SDS011;13600;50.816;4.416;2024-03-17T06:57:06;13.40;;;6.80;;
25752;SDS011;13600;50.816;4.416;2024-03-17T06:59:34;10.25;;;5.85;;
25752;SDS011;13600;50.816;4.416;2024-03-17T07:02:00;9.68;;;5.93;;
25752;SDS011;13600;50.816;4.416;2024-03-17T07:04:26;12.15;;;6.30;;
25752;SDS011;13600;50.816;4.416;2024-03-17T07:06:52;10.50;;;6.10;;
25752;SDS011;13600;50.816;4.416;2024-03-17T07:09:17;14.57;;;6.10;;
25752;SDS011;13600;50.816;4.416;2024-03-17T07:11:44;10.23;;;5.90;;
25752;SDS011;13600;50.816;4.416;2024-03-17T07:14:10;12.48;;;6.20;;
25752;SDS011;13600;50.816;4.416;2024-03-17T07:16:36;10.75;;;5.82;;
25752;SDS011;13600;50.816;4.416;2024-03-17T07:19:02;11.63;;;5.88;;
25752;SDS011;13600;50.816;4.416;2024-03-17T07:21:28;13.15;;;5.55;;
25752;SDS011;13600;50.816;4.416;2024-03-17T07:23:54;13.45;;;5.68;;
25752;SDS011;13600;50.816;4.416;2024-03-17T07:26:20;12.15;;;5.70;;
25752;SDS011;13600;50.816;4.416;2024-03-17T07:28:45;11.98;;;5.40;;
25752;SDS011;13600;50.816;4.416;2024-03-17T07:31:11;10.27;;;5.35;;
25752;SDS011;13600;50.816;4.416;2024-03-17T07:33:36;10.98;;;5.43;;
25752;SDS011;13600;50.816;4.416;2024-03-17T07:36:02;10.75;;;5.18;;
25752;SDS011;13600;50.816;4.416;2024-03-17T07:38:30;11.38;;;5.15;;
25752;SDS011;13600;50.816;4.416;2024-03-17T07:43:27;10.32;;;4.93;;
25752;SDS011;13600;50.816;4.416;2024-03-17T07:46:00;7.43;;;5.15;;
25752;SDS011;13600;50.816;4.416;2024-03-17T07:48:27;10.30;;;5.22;;
25752;SDS011;13600;50.816;4.416;2024-03-17T07:50:57;7.95;;;4.60;;
25752;SDS011;13600;50.816;4.416;2024-03-17T07:53:31;11.00;;;4.88;;
25752;SDS011;13600;50.816;4.416;2024-03-17T07:55:59;12.05;;;5.00;;
25752;SDS011;13600;50.816;4.416;2024-03-17T07:58:26;6.30;;;4.50;;
25752;SDS011;13600;50.816;4.416;2024-03-17T08:00:52;12.32;;;4.88;;
25752;SDS011;13600;50.816;4.416;2024-03-17T08:03:25;11.95;;;4.60;;
25752;SDS011;13600;50.816;4.416;2024-03-17T08:05:51;7.82;;;4.60;;
25752;SDS011;13600;50.816;4.416;2024-03-17T08:08:18;8.00;;;4.43;;
25752;SDS011;13600;50.816;4.416;2024-03-17T08:10:44;9.95;;;4.68;;
25752;SDS011;13600;50.816;4.416;2024-03-17T08:13:11;11.73;;;5.15;;
25752;SDS011;13600;50.816;4.416;2024-03-17T08:15:39;13.18;;;4.85;;
25752;SDS011;13600;50.816;4.416;2024-03-17T08:18:05;6.75;;;4.55;;
25752;SDS011;13600;50.816;4.416;2024-03-17T08:20:36;8.90;;;4.25;;
25752;SDS011;13600;50.816;4.416;2024-03-17T08:23:03;8.80;;;4.18;;
25752;SDS011;13600;50.816;4.416;2024-03-17T08:25:29;7.63;;;4.32;;
25752;SDS011;13600;50.816;4.416;2024-03-17T08:27:55;10.27;;;4.32;;
25752;SDS011;13600;50.816;4.416;2024-03-17T08:30:21;9.00;;;4.15;;
25752;SDS011;13600;50.816;4.416;2024-03-17T08:32:47;9.40;;;4.25;;
25752;SDS011;13600;50.816;4.416;2024-03-17T08:35:12;15.23;;;4.50;;
25752;SDS011;13600;50.816;4.416;2024-03-17T08:37:38;10.15;;;4.30;;
25752;SDS011;13600;50.816;4.416;2024-03-17T08:40:04;7.97;;;4.43;;
25752;SDS011;13600;50.816;4.416;2024-03-17T08:42:33;10.65;;;4.05;;
25752;SDS011;13600;50.816;4.416;2024-03-17T08:44:58;9.90;;;4.10;;
25752;SDS011;13600;50.816;4.416;2024-03-17T08:47:24;9.25;;;4.07;;
25752;SDS011;13600;50.816;4.416;2024-03-17T08:49:50;9.45;;;4.47;;
25752;SDS011;13600;50.816;4.416;2024-03-17T08:52:16;9.25;;;3.97;;
25752;SDS011;13600;50.816;4.416;2024-03-17T08:54:45;8.43;;;4.25;;
25752;SDS011;13600;50.816;4.416;2024-03-17T08:57:12;9.70;;;3.80;;
25752;SDS011;13600;50.816;4.416;2024-03-17T08:59:38;6.90;;;4.00;;
25752;SDS011;13600;50.816;4.416;2024-03-17T09:02:03;12.07;;;4.20;;
25752;SDS011;13600;50.816;4.416;2024-03-17T09:04:29;8.88;;;3.75;;
25752;SDS011;13600;50.816;4.416;2024-03-17T09:06:56;11.13;;;3.90;;
25752;SDS011;13600;50.816;4.416;2024-03-17T09:09:22;9.02;;;3.83;;
25752;SDS011;13600;50.816;4.416;2024-03-17T09:11:48;7.20;;;3.90;;
25752;SDS011;13600;50.816;4.416;2024-03-17T09:14:14;9.02;;;3.95;;
25752;SDS011;13600;50.816;4.416;2024-03-17T09:16:39;9.32;;;4.00;;
25752;SDS011;13600;50.816;4.416;2024-03-17T09:19:05;7.75;;;3.70;;
25752;SDS011;13600;50.816;4.416;2024-03-17T09:21:31;9.27;;;4.35;;
25752;SDS011;13600;50.816;4.416;2024-03-17T09:23:56;9.30;;;4.18;;
25752;SDS011;13600;50.816;4.416;2024-03-17T09:26:22;11.38;;;3.97;;
25752;SDS011;13600;50.816;4.416;2024-03-17T09:28:48;9.05;;;4.22;;
25752;SDS011;13600;50.816;4.416;2024-03-17T09:31:13;9.13;;;4.47;;
25752;SDS011;13600;50.816;4.416;2024-03-17T09:33:39;8.23;;;3.95;;
25752;SDS011;13600;50.816;4.416;2024-03-17T09:36:08;8.90;;;4.30;;
25752;SDS011;13600;50.816;4.416;2024-03-17T09:38:38;9.60;;;4.18;;
25752;SDS011;13600;50.816;4.416;2024-03-17T09:41:03;9.23;;;4.38;;
25752;SDS011;13600;50.816;4.416;2024-03-17T09:43:32;9.45;;;3.83;;
25752;SDS011;13600;50.816;4.416;2024-03-17T09:45:59;7.68;;;3.80;;
25752;SDS011;13600;50.816;4.416;2024-03-17T09:48:28;12.25;;;4.40;;
25752;SDS011;13600;50.816;4.416;2024-03-17T09:50:55;7.85;;;3.80;;
25752;SDS011;13600;50.816;4.416;2024-03-17T09:53:25;11.77;;;4.20;;
25752;SDS011;13600;50.816;4.416;2024-03-17T09:56:08;9.95;;;3.95;;
25752;SDS011;13600;50.816;4.416;2024-03-17T09:58:35;8.15;;;3.65;;
25752;SDS011;13600;50.816;4.416;2024-03-17T10:01:01;9.50;;;3.83;;
25752;SDS011;13600;50.816;4.416;2024-03-17T10:06:29;8.40;;;3.60;;
25752;SDS011;13600;50.816;4.416;2024-03-17T10:08:56;9.07;;;3.92;;
25752;SDS011;13600;50.816;4.416;2024-03-17T10:11:23;8.27;;;3.92;;
25752;SDS011;13600;50.816;4.416;2024-03-17T10:14:01;9.82;;;3.83;;
25752;SDS011;13600;50.816;4.416;2024-03-17T10:16:29;6.50;;;3.30;;
25752;SDS011;13600;50.816;4.416;2024-03-17T10:21:35;8.90;;;3.40;;
25752;SDS011;13600;50.816;4.416;2024-03-17T10:29:20;10.82;;;3.85;;
25752;SDS011;13600;50.816;4.416;2024-03-17T10:31:54;8.27;;;3.85;;
25752;SDS011;13600;50.816;4.416;2024-03-17T10:34:22;6.82;;;3.20;;
25752;SDS011;13600;50.816;4.416;2024-03-17T10:36:50;8.05;;;3.53;;
25752;SDS011;13600;50.816;4.416;2024-03-17T10:39:23;9.23;;;3.40;;
25752;SDS011;13600;50.816;4.416;2024-03-17T10:42:00;10.25;;;3.50;;
25752;SDS011;13600;50.816;4.416;2024-03-17T10:44:31;9.18;;;3.67;;
25752;SDS011;13600;50.816;4.416;2024-03-17T10:46:58;11.10;;;3.70;;
25752;SDS011;13600;50.816;4.416;2024-03-17T10:49:32;10.85;;;3.90;;
25752;SDS011;13600;50.816;4.416;2024-03-17T10:52:00;7.97;;;3.30;;
25752;SDS011;13600;50.816;4.416;2024-03-17T10:54:27;8.63;;;3.28;;
25752;SDS011;13600;50.816;4.416;2024-03-17T10:57:02;8.77;;;3.00;;
25752;SDS011;13600;50.816;4.416;2024-03-17T10:59:50;10.32;;;3.30;;
25752;SDS011;13600;50.816;4.416;2024-03-17T11:02:27;12.15;;;3.45;;
25752;SDS011;13600;50.816;4.416;2024-03-17T11:04:57;8.23;;;2.97;;
25752;SDS011;13600;50.816;4.416;2024-03-17T11:09:56;5.88;;;2.60;;
25752;SDS011;13600;50.816;4.416;2024-03-17T11:17:47;7.75;;;2.80;;
25752;SDS011;13600;50.816;4.416;2024-03-17T11:20:24;6.28;;;2.58;;
25752;SDS011;13600;50.816;4.416;2024-03-17T11:22:54;6.05;;;2.55;;
25752;SDS011;13600;50.816;4.416;2024-03-17T11:27:57;7.35;;;2.65;;
25752;SDS011;13600;50.816;4.416;2024-03-17T11:38:55;7.00;;;2.50;;
25752;SDS011;13600;50.816;4.416;2024-03-17T11:46:57;8.40;;;2.38;;
25752;SDS011;13600;50.816;4.416;2024-03-17T11:52:02;5.30;;;1.95;;
25752;SDS011;13600;50.816;4.416;2024-03-17T11:54:33;5.72;;;1.95;;
25752;SDS011;13600;50.816;4.416;2024-03-17T11:57:03;5.90;;;1.73;;
25752;SDS011;13600;50.816;4.416;2024-03-17T11:59:34;7.18;;;2.00;;
25752;SDS011;13600;50.816;4.416;2024-03-17T12:02:00;8.10;;;2.08;;
25752;SDS011;13600;50.816;4.416;2024-03-17T12:04:27;7.50;;;1.70;;
25752;SDS011;13600;50.816;4.416;2024-03-17T12:06:56;9.40;;;1.92;;
25752;SDS011;13600;50.816;4.416;2024-03-17T12:09:28;6.40;;;1.83;;
25752;SDS011;13600;50.816;4.416;2024-03-17T12:12:00;7.70;;;1.88;;
25752;SDS011;13600;50.816;4.416;2024-03-17T12:14:26;6.30;;;1.98;;
25752;SDS011;13600;50.816;4.416;2024-03-17T12:16:57;9.52;;;2.00;;
25752;SDS011;13600;50.816;4.416;2024-03-17T12:19:28;5.47;;;1.88;;
25752;SDS011;13600;50.816;4.416;2024-03-17T12:21:56;8.40;;;1.92;;
25752;SDS011;13600;50.816;4.416;2024-03-17T12:24:26;7.38;;;1.50;;
25752;SDS011;13600;50.816;4.416;2024-03-17T12:27:00;4.65;;;1.48;;
25752;SDS011;13600;50.816;4.416;2024-03-17T12:29:38;5.18;;;1.30;;
25752;SDS011;13600;50.816;4.416;2024-03-17T12:34:38;11.52;;;2.33;;
25752;SDS011;13600;50.816;4.416;2024-03-17T12:37:05;8.65;;;1.58;;
25752;SDS011;13600;50.816;4.416;2024-03-17T12:39:31;8.48;;;1.77;;
25752;SDS011;13600;50.816;4.416;2024-03-17T12:42:04;8.63;;;1.83;;
25752;SDS011;13600;50.816;4.416;2024-03-17T12:44:37;6.68;;;1.63;;
25752;SDS011;13600;50.816;4.416;2024-03-17T12:47:08;6.87;;;1.60;;
25752;SDS011;13600;50.816;4.416;2024-03-17T12:49:50;7.63;;;1.80;;
25752;SDS011;13600;50.816;4.416;2024-03-17T12:52:23;6.93;;;1.33;;
25752;SDS011;13600;50.816;4.416;2024-03-17T12:55:05;5.03;;;1.33;;
25752;SDS011;13600;50.816;4.416;2024-03-17T12:57:51;6.25;;;1.30;;
25752;SDS011;13600;50.816;4.416;2024-03-17T13:00:44;8.68;;;1.58;;
25752;SDS011;13600;50.816;4.416;2024-03-17T13:03:21;6.30;;;1.50;;
25752;SDS011;13600;50.816;4.416;2024-03-17T13:05:59;6.82;;;1.75;;
25752;SDS011;13600;50.816;4.416;2024-03-17T13:08:28;10.45;;;2.13;;
25752;SDS011;13600;50.816;4.416;2024-03-17T13:10:54;7.97;;;2.05;;
25752;SDS011;13600;50.816;4.416;2024-03-17T13:13:20;7.15;;;1.45;;
25752;SDS011;13600;50.816;4.416;2024-03-17T13:15:48;7.85;;;1.92;;
25752;SDS011;13600;50.816;4.416;2024-03-17T13:18:16;7.95;;;1.75;;
25752;SDS011;13600;50.816;4.416;2024-03-17T13:20:48;7.38;;;1.70;;
25752;SDS011;13600;50.816;4.416;2024-03-17T13:23:19;6.22;;;1.65;;
25752;SDS011;13600;50.816;4.416;2024-03-17T13:25:46;8.38;;;1.52;;
25752;SDS011;13600;50.816;4.416;2024-03-17T13:28:13;8.68;;;1.50;;
25752;SDS011;13600;50.816;4.416;2024-03-17T13:30:40;5.32;;;1.38;;
25752;SDS011;13600;50.816;4.416;2024-03-17T13:33:06;8.90;;;1.50;;
25752;SDS011;13600;50.816;4.416;2024-03-17T13:35:37;9.32;;;1.70;;
25752;SDS011;13600;50.816;4.416;2024-03-17T13:38:05;7.43;;;1.90;;
25752;SDS011;13600;50.816;4.416;2024-03-17T13:40:32;10.63;;;2.03;;
25752;SDS011;13600;50.816;4.416;2024-03-17T13:42:58;10.30;;;1.70;;
25752;SDS011;13600;50.816;4.416;2024-03-17T13:45:27;7.45;;;1.73;;
25752;SDS011;13600;50.816;4.416;2024-03-17T13:47:56;7.80;;;1.63;;
25752;SDS011;13600;50.816;4.416;2024-03-17T13:50:23;5.53;;;1.48;;
25752;SDS011;13600;50.816;4.416;2024-03-17T13:52:51;8.93;;;2.05;;
25752;SDS011;13600;50.816;4.416;2024-03-17T13:55:18;8.05;;;1.65;;
25752;SDS011;13600;50.816;4.416;2024-03-17T13:57:45;9.15;;;1.65;;
25752;SDS011;13600;50.816;4.416;2024-03-17T14:00:25;6.47;;;1.30;;
25752;SDS011;13600;50.816;4.416;2024-03-17T14:02:53;7.80;;;1.58;;
25752;SDS011;13600;50.816;4.416;2024-03-17T14:05:20;8.85;;;1.92;;
25752;SDS011;13600;50.816;4.416;2024-03-17T14:07:46;9.85;;;1.77;;
25752;SDS011;13600;50.816;4.416;2024-03-17T14:10:13;7.13;;;1.50;;
25752;SDS011;13600;50.816;4.416;2024-03-17T14:12:42;7.68;;;1.33;;
25752;SDS011;13600;50.816;4.416;2024-03-17T14:15:08;5.55;;;1.48;;
25752;SDS011;13600;50.816;4.416;2024-03-17T14:17:39;6.95;;;1.30;;
25752;SDS011;13600;50.816;4.416;2024-03-17T14:20:07;6.45;;;1.50;;
25752;SDS011;13600;50.816;4.416;2024-03-17T14:22:37;5.57;;;1.48;;
25752;SDS011;13600;50.816;4.416;2024-03-17T14:25:06;7.25;;;1.73;;
25752;SDS011;13600;50.816;4.416;2024-03-17T14:27:37;6.18;;;1.48;;
25752;SDS011;13600;50.816;4.416;2024-03-17T14:30:04;4.95;;;1.60;;
25752;SDS011;13600;50.816;4.416;2024-03-17T14:32:30;6.85;;;1.60;;
25752;SDS011;13600;50.816;4.416;2024-03-17T14:34:56;7.93;;;1.60;;
25752;SDS011;13600;50.816;4.416;2024-03-17T14:37:22;6.90;;;2.00;;
25752;SDS011;13600;50.816;4.416;2024-03-17T14:39:48;8.68;;;1.73;;
25752;SDS011;13600;50.816;4.416;2024-03-17T14:42:16;5.90;;;1.67;;
25752;SDS011;13600;50.816;4.416;2024-03-17T14:44:42;8.55;;;1.70;;
25752;SDS011;13600;50.816;4.416;2024-03-17T14:47:08;9.52;;;2.20;;
25752;SDS011;13600;50.816;4.416;2024-03-17T14:49:36;9.73;;;1.75;;
25752;SDS011;13600;50.816;4.416;2024-03-17T14:52:01;35.22;;;7.57;;
25752;SDS011;13600;50.816;4.416;2024-03-17T14:54:27;8.52;;;1.98;;
25752;SDS011;13600;50.816;4.416;2024-03-17T14:56:53;7.25;;;1.90;;
25752;SDS011;13600;50.816;4.416;2024-03-17T14:59:18;10.40;;;1.55;;
25752;SDS011;13600;50.816;4.416;2024-03-17T15:01:46;7.88;;;1.65;;
25752;SDS011;13600;50.816;4.416;2024-03-17T15:04:12;9.48;;;1.80;;
25752;SDS011;13600;50.816;4.416;2024-03-17T15:06:38;6.20;;;1.60;;
25752;SDS011;13600;50.816;4.416;2024-03-17T15:09:10;7.47;;;1.70;;
25752;SDS011;13600;50.816;4.416;2024-03-17T15:11:37;6.20;;;1.60;;
25752;SDS011;13600;50.816;4.416;2024-03-17T15:14:03;10.38;;;1.98;;
25752;SDS011;13600;50.816;4.416;2024-03-17T15:16:33;5.93;;;1.50;;
25752;SDS011;13600;50.816;4.416;2024-03-17T15:18:59;5.93;;;1.80;;
25752;SDS011;13600;50.816;4.416;2024-03-17T15:21:24;10.40;;;2.08;;
25752;SDS011;13600;50.816;4.416;2024-03-17T15:23:51;4.85;;;1.52;;
25752;SDS011;13600;50.816;4.416;2024-03-17T15:26:17;7.97;;;2.10;;
25752;SDS011;13600;50.816;4.416;2024-03-17T15:28:44;7.10;;;1.83;;
25752;SDS011;13600;50.816;4.416;2024-03-17T15:31:10;5.43;;;1.50;;
25752;SDS011;13600;50.816;4.416;2024-03-17T15:33:36;8.23;;;1.88;;
25752;SDS011;13600;50.816;4.416;2024-03-17T15:36:03;7.13;;;1.60;;
25752;SDS011;13600;50.816;4.416;2024-03-17T15:38:33;3.67;;;1.60;;